Terminal Aerodrome Forecast
Issued by NWS Wilmington, OH

Current Version | Previous Version | Text Only | Print | Product List | Glossary Off
Versions: 1 2 3 4 5 6 7 8 9 10 11 12 13 14 15 16 17 18 19 20 21 22 23 24

000
FTUS41 KILN 210203 AAA
TAFILN
TAF AMD
KILN 210203Z 2102/2124 21007KT P6SM OVC012
     FM210500 21007KT 4SM BR VCSH OVC006
     FM211000 20006KT 4SM BR VCSH OVC012
     FM211700 21012KT 5SM BR OVC008
     FM212300 19008KT 5SM BR OVC008=

USA.gov is the U.S. government's official web portal to all federal, state and local government web resources and services.